createdAt,value
2022-10-01T00:08:55.934Z,7.47
2022-10-01T00:18:57.751Z,9.53
2022-10-01T00:29:02.076Z,7.20
2022-10-01T00:39:03.691Z,6.47
2022-10-01T00:49:15.894Z,6.07
2022-10-01T00:59:17.536Z,5.85
2022-10-01T01:09:20.360Z,5.87
2022-10-01T01:19:41.466Z,5.57
2022-10-01T01:29:54.449Z,6.27
2022-10-01T01:39:58.607Z,6.40
2022-10-01T01:50:02.210Z,6.43
2022-10-01T02:00:04.705Z,5.23
2022-10-01T02:10:16.861Z,5.57
2022-10-01T02:20:29.233Z,4.97
2022-10-01T02:30:33.383Z,6.27
2022-10-01T02:40:38.392Z,5.32
2022-10-01T02:50:52.543Z,4.83
2022-10-01T03:00:54.044Z,5.50
2022-10-01T03:10:55.539Z,4.70
2022-10-01T03:20:57.034Z,4.93
2022-10-01T03:31:06.679Z,7.32
2022-10-01T03:41:08.240Z,7.40
2022-10-01T03:51:09.753Z,5.43
2022-10-01T04:01:11.427Z,9.37
2022-10-01T04:11:12.898Z,4.87
2022-10-01T04:21:14.854Z,4.88
2022-10-01T04:31:16.358Z,5.97
2022-10-01T04:41:18.075Z,5.53
2022-10-01T04:51:19.756Z,4.00
2022-10-01T05:01:21.284Z,4.97
2022-10-01T05:11:23.011Z,9.35
2022-10-01T05:21:24.595Z,6.53
2022-10-01T05:31:26.610Z,7.53
2022-10-01T05:41:28.077Z,6.17
2022-10-01T05:51:29.562Z,10.97
2022-10-01T06:01:31.733Z,5.90
2022-10-01T06:11:36.577Z,7.90
2022-10-01T06:21:38.275Z,9.00
2022-10-01T06:31:39.794Z,8.00
2022-10-01T06:41:41.321Z,6.57
2022-10-01T06:51:42.796Z,8.30
2022-10-01T07:01:44.320Z,6.07
2022-10-01T07:11:45.845Z,7.83
2022-10-01T07:21:50.196Z,6.27
2022-10-01T07:31:57.286Z,6.00
2022-10-01T07:41:58.826Z,6.70
2022-10-01T07:52:00.487Z,8.73
2022-10-01T08:02:02.039Z,6.73
2022-10-01T08:12:03.661Z,8.27
2022-10-01T08:22:05.112Z,10.27
2022-10-01T08:32:06.632Z,9.77
2022-10-01T08:42:25.712Z,10.87
2022-10-01T08:52:33.725Z,8.93
2022-10-01T09:02:39.296Z,9.47
2022-10-01T09:12:46.884Z,11.53
2022-10-01T09:23:11.113Z,11.15
2022-10-01T09:33:18.867Z,9.97
2022-10-01T09:43:23.042Z,9.73
2022-10-01T09:53:33.372Z,11.27
2022-10-01T10:03:36.002Z,9.23
2022-10-01T10:13:41.031Z,8.93
2022-10-01T10:23:50.080Z,8.53
2022-10-01T10:34:05.536Z,8.57
2022-10-01T10:44:07.845Z,9.17
2022-10-01T10:54:20.536Z,11.37
2022-10-01T11:04:41.680Z,9.07
2022-10-01T11:14:54.591Z,7.30
2022-10-01T11:25:14.253Z,12.70
2022-10-01T11:35:33.133Z,8.33
2022-10-01T11:45:44.814Z,6.97
2022-10-01T11:55:58.425Z,6.45
2022-10-01T12:06:00.479Z,7.97
2022-10-01T12:16:22.558Z,12.47
2022-10-01T12:26:35.784Z,9.03
2022-10-01T12:37:25.516Z,11.23
2022-10-01T12:47:40.037Z,12.38
2022-10-01T12:58:05.170Z,13.77
2022-10-01T13:08:16.062Z,11.87
2022-10-01T13:18:55.060Z,12.90
2022-10-01T13:29:19.084Z,11.93
2022-10-01T13:39:23.464Z,10.75
2022-10-01T13:49:30.668Z,9.73
2022-10-01T13:59:35.375Z,11.30
2022-10-01T14:09:43.399Z,10.73
2022-10-01T14:19:46.610Z,12.50
2022-10-01T14:30:12.726Z,9.52
2022-10-01T14:40:22.372Z,9.73
2022-10-01T14:50:24.273Z,9.70
2022-10-01T15:00:28.829Z,11.43
2022-10-01T15:10:30.521Z,11.03
2022-10-01T15:20:32.423Z,9.55
2022-10-01T15:30:36.110Z,11.03
2022-10-01T15:40:38.532Z,12.17
2022-10-01T15:50:40.928Z,11.67
2022-10-01T16:00:59.414Z,11.40
2022-10-01T16:11:13.080Z,11.65
2022-10-01T16:21:14.953Z,13.37
2022-10-01T16:31:16.991Z,14.67
2022-10-01T16:41:24.976Z,9.63
2022-10-01T16:51:26.937Z,11.17
2022-10-01T17:01:29.025Z,7.32
2022-10-01T17:11:31.822Z,7.73
2022-10-01T17:21:33.864Z,6.20
2022-10-01T17:31:40.303Z,7.03
2022-10-01T17:41:42.540Z,9.20
2022-10-01T17:51:44.603Z,9.23
2022-10-01T18:01:46.509Z,13.93
2022-10-01T18:11:48.677Z,31.20
2022-10-01T18:21:50.167Z,26.20
2022-10-01T18:32:20.343Z,6.70
2022-10-01T18:42:43.263Z,9.68
2022-10-01T18:53:19.448Z,9.13
2022-10-01T19:03:38.887Z,7.40
2022-10-01T19:14:04.908Z,7.17
2022-10-01T19:24:25.138Z,6.17
2022-10-01T19:34:38.847Z,7.80
2022-10-01T19:44:54.766Z,8.17
2022-10-01T19:54:57.452Z,6.10
2022-10-01T20:05:06.113Z,4.97
2022-10-01T20:15:20.780Z,5.40
2022-10-01T20:25:42.491Z,4.30
2022-10-01T20:36:04.121Z,3.43
2022-10-01T20:46:14.986Z,8.10
2022-10-01T20:56:24.919Z,4.80
2022-10-01T21:06:34.452Z,4.97
2022-10-01T21:17:02.279Z,3.72
2022-10-01T21:27:17.009Z,3.50
2022-10-01T21:37:33.846Z,3.57
2022-10-01T21:48:02.966Z,5.10
2022-10-01T21:58:13.390Z,3.73
2022-10-01T22:08:27.028Z,4.15
2022-10-01T22:18:45.820Z,4.00
2022-10-01T22:28:51.913Z,3.97
2022-10-01T22:39:02.727Z,8.37
2022-10-01T22:49:06.818Z,4.63
2022-10-01T22:59:35.929Z,6.30
2022-10-01T23:09:54.581Z,3.90
2022-10-01T23:19:59.599Z,6.83
2022-10-01T23:30:24.059Z,5.03
2022-10-01T23:40:36.961Z,5.47
2022-10-01T23:50:57.325Z,7.45
